Time;durP1;ratioP1;P1;durP2;ratioP2;P2;SDS_P1;SDS_P2;PMS_P1;PMS_P2;Temp;Humidity;BMP_temperature;BMP_pressure;BME280_temperature;BME280_humidity;BME280_pressure;Samples;Min_cycle;Max_cycle;Signal;HPM_P1;HPM_P2
2023/08/09 00:02:15;;;;;;;7.20;3.58;;;;;;;13.57;nan;101262.66;5019693;28;20445;-78
2023/08/09 00:04:41;;;;;;;4.18;3.53;;;;;;;13.53;nan;101263.63;5023717;28;20055;-78
2023/08/09 00:07:06;;;;;;;4.20;3.80;;;;;;;13.48;nan;101259.47;5020683;28;20041;-78
2023/08/09 00:09:32;;;;;;;12.70;3.60;;;;;;;13.50;nan;101262.88;5018207;28;20069;-78
2023/08/09 00:11:57;;;;;;;5.20;3.80;;;;;;;13.57;nan;101254.81;5026411;28;20048;-77
2023/08/09 00:14:23;;;;;;;4.10;3.70;;;;;;;13.51;nan;101262.84;5022094;28;20473;-78
2023/08/09 00:16:48;;;;;;;5.75;3.85;;;;;;;13.55;nan;101261.00;5024761;28;20025;-77
2023/08/09 00:19:13;;;;;;;4.82;3.90;;;;;;;13.52;nan;101254.06;5023643;28;20370;-77
2023/08/09 00:21:39;;;;;;;4.25;3.55;;;;;;;13.58;nan;101258.28;5022920;28;20038;-77
2023/08/09 00:24:04;;;;;;;4.40;3.72;;;;;;;13.59;nan;101267.84;5024712;28;20014;-77
2023/08/09 00:26:30;;;;;;;6.20;4.03;;;;;;;13.66;nan;101263.28;5023116;28;20461;-77
2023/08/09 00:28:56;;;;;;;6.85;3.40;;;;;;;13.59;nan;101265.22;5024301;28;20410;-77
2023/08/09 00:31:22;;;;;;;4.28;3.70;;;;;;;13.50;nan;101255.88;5025687;28;20053;-76
2023/08/09 00:33:48;;;;;;;5.25;4.10;;;;;;;13.53;nan;101262.78;5022037;28;20405;-77
2023/08/09 00:36:15;;;;;;;5.72;3.80;;;;;;;13.52;nan;101255.84;5027742;28;20068;-76
2023/08/09 00:38:41;;;;;;;5.80;3.80;;;;;;;13.45;nan;101255.16;5020869;28;20018;-76
2023/08/09 00:41:06;;;;;;;5.57;3.90;;;;;;;13.47;nan;101266.47;5027965;28;20090;-76
2023/08/09 00:43:31;;;;;;;5.90;4.28;;;;;;;13.46;nan;101254.25;5020717;28;20389;-76
2023/08/09 00:45:57;;;;;;;6.85;4.13;;;;;;;13.48;nan;101259.47;5020932;28;20462;-76
2023/08/09 00:48:23;;;;;;;6.63;4.20;;;;;;;13.50;nan;101258.47;5025174;28;20377;-76
2023/08/09 00:50:48;;;;;;;7.55;4.80;;;;;;;13.55;nan;101268.84;5024042;28;20021;-76
2023/08/09 00:53:14;;;;;;;7.50;4.40;;;;;;;13.42;nan;101262.25;5021228;28;20037;-76
2023/08/09 00:55:39;;;;;;;6.40;4.28;;;;;;;13.48;nan;101267.31;5025732;28;20033;-75
2023/08/09 00:58:05;;;;;;;5.40;4.85;;;;;;;13.53;nan;101273.25;5023902;28;20030;-76
2023/08/09 01:00:31;;;;;;;7.00;4.90;;;;;;;13.49;nan;101272.50;5016363;28;20068;-76
2023/08/09 01:02:57;;;;;;;5.63;4.30;;;;;;;13.40;nan;101285.00;5023574;28;20477;-76
2023/08/09 01:05:29;;;;;;;6.10;4.72;;;;;;;13.38;nan;101282.44;5023097;28;20037;-76
2023/08/09 01:08:12;;;;;;;7.70;4.80;;;;;;;13.40;nan;101282.38;5015421;28;20022;-76
2023/08/09 01:10:46;;;;;;;5.78;4.72;;;;;;;13.33;nan;101274.69;5027415;28;20041;-76
2023/08/09 01:13:14;;;;;;;5.80;4.22;;;;;;;13.34;nan;101276.41;5020180;28;20061;-76
2023/08/09 01:15:42;;;;;;;5.20;4.40;;;;;;;13.30;nan;101274.75;5027021;28;20052;-76
2023/08/09 01:18:08;;;;;;;5.75;5.13;;;;;;;13.31;nan;101281.75;5012729;28;20026;-76
2023/08/09 01:20:34;;;;;;;5.88;5.15;;;;;;;13.33;nan;101277.31;5020615;28;20030;-76
2023/08/09 01:23:04;;;;;;;9.05;5.25;;;;;;;13.38;nan;101276.34;5017577;28;20034;-76
2023/08/09 01:25:31;;;;;;;7.00;5.63;;;;;;;13.40;nan;101269.28;5012966;28;20029;-76
2023/08/09 01:27:57;;;;;;;7.97;5.82;;;;;;;13.42;nan;101277.97;5025253;28;20037;-76
2023/08/09 01:30:23;;;;;;;9.25;6.05;;;;;;;13.37;nan;101274.59;5017923;28;20068;-76
2023/08/09 01:32:48;;;;;;;8.82;5.07;;;;;;;13.42;nan;101277.97;5021908;28;20056;-76
2023/08/09 01:35:15;;;;;;;6.78;5.28;;;;;;;13.48;nan;101289.13;5023358;28;20108;-75
2023/08/09 01:37:52;;;;;;;6.63;4.82;;;;;;;13.35;nan;101293.00;5023457;28;20057;-76
2023/08/09 01:40:18;;;;;;;7.15;4.97;;;;;;;13.32;nan;101290.44;5022758;28;20033;-76
2023/08/09 01:42:44;;;;;;;6.05;4.95;;;;;;;13.34;nan;101291.25;5020577;28;20388;-76
2023/08/09 01:45:12;;;;;;;9.23;5.15;;;;;;;13.27;nan;101287.94;5022840;28;20045;-76
2023/08/09 01:47:39;;;;;;;6.93;5.22;;;;;;;13.13;nan;101287.44;5023156;28;20105;-75
2023/08/09 01:50:06;;;;;;;7.15;5.00;;;;;;;12.92;nan;101288.88;5022176;28;20033;-76
2023/08/09 01:52:32;;;;;;;6.82;5.07;;;;;;;12.85;nan;101284.69;5018392;28;20045;-76
2023/08/09 01:54:57;;;;;;;5.88;5.03;;;;;;;12.84;nan;101296.91;5022121;28;20021;-75
2023/08/09 01:57:23;;;;;;;9.88;5.30;;;;;;;12.79;nan;101301.41;5021984;28;20026;-76
2023/08/09 01:59:48;;;;;;;8.25;5.28;;;;;;;12.67;nan;101304.31;5020698;28;20037;-76
2023/08/09 02:02:14;;;;;;;8.63;5.07;;;;;;;12.58;nan;101296.69;5020384;28;20030;-75
2023/08/09 02:04:39;;;;;;;5.75;5.03;;;;;;;12.50;nan;101290.81;5022354;28;20382;-76
2023/08/09 02:07:05;;;;;;;9.20;5.53;;;;;;;12.45;nan;101293.53;5023276;28;20476;-76
2023/08/09 02:09:30;;;;;;;8.80;5.35;;;;;;;12.41;nan;101305.81;5021136;28;20473;-76
2023/08/09 02:11:56;;;;;;;10.02;5.57;;;;;;;12.44;nan;101304.03;5022590;28;20091;-76
2023/08/09 02:14:21;;;;;;;8.25;5.95;;;;;;;12.41;nan;101303.19;5023190;28;20025;-75
2023/08/09 02:16:47;;;;;;;11.60;6.05;;;;;;;12.38;nan;101310.25;5018281;28;20474;-76
2023/08/09 02:19:12;;;;;;;8.75;5.30;;;;;;;12.27;nan;101313.13;5021804;28;20377;-76
2023/08/09 02:21:39;;;;;;;8.68;6.32;;;;;;;12.17;nan;101317.72;5021672;28;20033;-76
2023/08/09 02:24:05;;;;;;;10.65;6.22;;;;;;;12.23;nan;101313.22;5023356;28;20021;-76
2023/08/09 02:26:31;;;;;;;10.50;6.95;;;;;;;12.19;nan;101322.88;5021512;28;20037;-76
2023/08/09 02:28:56;;;;;;;10.00;6.90;;;;;;;12.04;nan;101311.03;5023025;28;20021;-75
2023/08/09 02:31:22;;;;;;;7.57;6.03;;;;;;;12.00;nan;101314.63;5024168;28;20168;-76
2023/08/09 02:33:47;;;;;;;9.23;6.82;;;;;;;11.98;nan;101323.38;5017864;28;20049;-76
2023/08/09 02:36:12;;;;;;;11.40;6.70;;;;;;;11.93;nan;101326.06;5020508;28;20024;-76
2023/08/09 02:38:38;;;;;;;9.38;6.93;;;;;;;11.98;nan;101336.44;5019462;28;20026;-75
2023/08/09 02:41:04;;;;;;;10.95;6.82;;;;;;;11.92;nan;101335.66;5024350;28;20477;-75
2023/08/09 02:43:30;;;;;;;10.13;7.18;;;;;;;11.93;nan;101344.34;5020563;28;20021;-75
2023/08/09 02:45:56;;;;;;;11.05;6.78;;;;;;;11.88;nan;101335.78;5030543;28;20025;-75
2023/08/09 02:48:22;;;;;;;13.48;6.78;;;;;;;11.91;nan;101336.56;5022636;28;20056;-75
2023/08/09 02:50:48;;;;;;;13.18;7.38;;;;;;;11.95;nan;101339.97;5023872;28;20026;-75
2023/08/09 02:53:15;;;;;;;10.73;7.65;;;;;;;12.00;nan;101348.59;5023804;28;20080;-75
2023/08/09 02:55:40;;;;;;;9.88;7.05;;;;;;;12.04;nan;101345.00;5026169;28;20022;-75
2023/08/09 02:58:05;;;;;;;10.55;7.93;;;;;;;12.07;nan;101359.75;5026288;28;20109;-75
2023/08/09 03:00:32;;;;;;;8.52;7.28;;;;;;;12.02;nan;101359.00;5022139;28;20483;-76
2023/08/09 03:02:58;;;;;;;11.95;7.68;;;;;;;11.94;nan;101356.56;5027305;28;20072;-75
2023/08/09 03:05:25;;;;;;;10.38;7.43;;;;;;;11.85;nan;101359.34;5023501;28;20028;-76
2023/08/09 03:07:51;;;;;;;11.80;6.97;;;;;;;11.82;nan;101352.41;5018692;28;20408;-75
2023/08/09 03:10:16;;;;;;;10.85;7.15;;;;;;;11.85;nan;101362.81;5026080;28;20026;-75
2023/08/09 03:12:42;;;;;;;14.15;7.78;;;;;;;11.90;nan;101367.94;5023401;28;20021;-75
2023/08/09 03:15:08;;;;;;;8.90;6.70;;;;;;;11.84;nan;101366.31;5025172;28;20033;-76
2023/08/09 03:17:33;;;;;;;8.35;7.03;;;;;;;11.78;nan;101371.63;5023638;28;20033;-75
2023/08/09 03:19:59;;;;;;;8.13;6.75;;;;;;;11.73;nan;101363.88;5026068;28;20025;-75
2023/08/09 03:22:25;;;;;;;7.65;6.53;;;;;;;11.63;nan;101364.09;5023762;28;20036;-75
2023/08/09 03:24:51;;;;;;;8.25;6.82;;;;;;;11.65;nan;101370.16;5021231;28;20432;-75
2023/08/09 03:27:16;;;;;;;8.93;7.38;;;;;;;11.65;nan;101370.16;5025469;28;20044;-75
2023/08/09 03:29:43;;;;;;;9.02;7.15;;;;;;;11.64;nan;101365.81;5023159;28;20025;-75
2023/08/09 03:32:08;;;;;;;9.25;7.57;;;;;;;11.69;nan;101366.59;5025257;28;20056;-75
2023/08/09 03:34:34;;;;;;;8.05;7.10;;;;;;;11.67;nan;101365.75;5026567;28;20042;-75
2023/08/09 03:36:59;;;;;;;7.80;7.00;;;;;;;11.66;nan;101369.25;5020589;28;20184;-75
2023/08/09 03:39:26;;;;;;;9.98;7.03;;;;;;;11.73;nan;101383.91;5020882;28;20064;-75
2023/08/09 03:41:51;;;;;;;8.85;6.53;;;;;;;11.67;nan;101384.03;5018578;28;20037;-75
2023/08/09 03:44:17;;;;;;;8.07;6.82;;;;;;;11.63;nan;101385.84;5029245;28;20025;-75
2023/08/09 03:46:42;;;;;;;7.53;6.55;;;;;;;11.56;nan;101391.22;5022254;28;20030;-76
2023/08/09 03:49:07;;;;;;;9.38;6.50;;;;;;;11.46;nan;101394.00;5029051;28;20040;-75
2023/08/09 03:51:33;;;;;;;9.15;6.82;;;;;;;11.49;nan;101400.91;5021833;28;20484;-75
2023/08/09 03:53:59;;;;;;;7.82;6.57;;;;;;;11.47;nan;101400.94;5029267;28;20036;-75
2023/08/09 03:56:25;;;;;;;11.25;6.88;;;;;;;11.41;nan;101400.19;5020706;28;20153;-75
2023/08/09 03:58:51;;;;;;;10.70;7.22;;;;;;;11.37;nan;101408.97;5021939;28;20124;-76
2023/08/09 04:01:17;;;;;;;10.55;7.47;;;;;;;11.40;nan;101411.53;5027843;28;20061;-75
2023/08/09 04:03:42;;;;;;;8.13;6.88;;;;;;;11.32;nan;101416.03;5020787;28;20481;-75
2023/08/09 04:06:07;;;;;;;7.70;6.82;;;;;;;11.24;nan;101408.31;5027094;28;20056;-75
2023/08/09 04:08:32;;;;;;;10.30;6.68;;;;;;;11.22;nan;101410.13;5022185;28;20033;-75
2023/08/09 04:10:59;;;;;;;9.02;6.93;;;;;;;11.22;nan;101412.72;5024945;28;20029;-75
2023/08/09 04:13:25;;;;;;;9.77;7.65;;;;;;;11.28;nan;101412.63;5023671;28;20029;-75
2023/08/09 04:15:50;;;;;;;8.68;7.28;;;;;;;11.19;nan;101413.63;5023425;28;20080;-75
2023/08/09 04:18:16;;;;;;;11.57;7.65;;;;;;;11.22;nan;101410.13;5024009;28;20033;-75
2023/08/09 04:20:42;;;;;;;9.95;7.53;;;;;;;11.21;nan;101424.03;5022568;28;20384;-75
2023/08/09 04:23:08;;;;;;;10.25;8.52;;;;;;;11.22;nan;101420.56;5024394;28;20104;-75
2023/08/09 04:25:33;;;;;;;8.90;7.72;;;;;;;11.33;nan;101425.56;5022099;28;20025;-75
2023/08/09 04:27:59;;;;;;;12.30;8.45;;;;;;;11.36;nan;101425.53;5012532;28;20033;-75
2023/08/09 04:30:24;;;;;;;11.02;8.27;;;;;;;11.37;nan;101422.88;5024221;28;20025;-75
2023/08/09 04:32:50;;;;;;;11.02;8.25;;;;;;;11.36;nan;101417.69;5021959;28;20477;-75
2023/08/09 04:35:15;;;;;;;12.02;8.75;;;;;;;11.37;nan;101428.09;5018949;28;20071;-75
2023/08/09 04:37:40;;;;;;;11.18;8.57;;;;;;;11.35;nan;101437.72;5023489;28;20056;-75
2023/08/09 04:40:10;;;;;;;10.13;8.13;;;;;;;11.40;nan;101435.88;5023206;28;20065;-75
2023/08/09 04:42:41;;;;;;;9.65;8.25;;;;;;;11.39;nan;101435.91;5025076;28;20026;-75
2023/08/09 04:45:10;;;;;;;10.75;8.18;;;;;;;11.47;nan;101437.47;5017828;28;20049;-75
2023/08/09 04:47:35;;;;;;;11.18;8.40;;;;;;;11.55;nan;101437.38;5025357;28;20381;-75
2023/08/09 04:50:03;;;;;;;12.15;8.60;;;;;;;11.56;nan;101443.44;5018918;28;20034;-75
2023/08/09 04:52:28;;;;;;;10.43;8.30;;;;;;;11.60;nan;101447.72;5026751;28;20036;-75
2023/08/09 04:54:53;;;;;;;11.05;8.57;;;;;;;11.63;nan;101442.44;5014737;28;20104;-75
2023/08/09 04:57:19;;;;;;;10.48;8.48;;;;;;;11.69;nan;101447.56;5022680;28;20479;-75
2023/08/09 04:59:44;;;;;;;11.63;8.88;;;;;;;11.82;nan;101445.59;5022859;28;20029;-75
2023/08/09 05:02:10;;;;;;;14.43;9.55;;;;;;;11.93;nan;101451.47;5021652;28;20022;-75
2023/08/09 05:04:35;;;;;;;15.02;10.07;;;;;;;12.02;nan;101442.63;5022578;28;20032;-75
2023/08/09 05:07:02;;;;;;;13.85;10.55;;;;;;;12.11;nan;101453.75;5019179;28;20037;-75
2023/08/09 05:09:28;;;;;;;16.70;12.27;;;;;;;12.16;nan;101461.47;5021861;28;20104;-75
2023/08/09 05:11:53;;;;;;;23.10;14.20;;;;;;;12.22;nan;101460.50;5025697;28;20109;-75
2023/08/09 05:14:18;;;;;;;22.73;13.77;;;;;;;12.30;nan;101456.84;5019484;28;20493;-75
2023/08/09 05:16:44;;;;;;;28.50;13.75;;;;;;;12.33;nan;101461.16;5026878;28;20033;-75
2023/08/09 05:19:09;;;;;;;46.85;15.50;;;;;;;12.28;nan;101465.63;5020301;28;20039;-75
2023/08/09 05:21:34;;;;;;;32.05;14.73;;;;;;;12.30;nan;101467.31;5026258;28;20449;-75
2023/08/09 05:23:59;;;;;;;25.10;13.80;;;;;;;12.34;nan;101468.09;5020421;28;20038;-75
2023/08/09 05:26:25;;;;;;;28.17;15.63;;;;;;;12.40;nan;101471.44;5025971;28;20023;-76
2023/08/09 05:28:51;;;;;;;30.30;15.55;;;;;;;12.49;nan;101472.13;5024857;28;20074;-75
2023/08/09 05:31:17;;;;;;;27.13;14.65;;;;;;;12.47;nan;101479.16;5023831;28;20052;-75
2023/08/09 05:33:42;;;;;;;25.55;15.38;;;;;;;12.46;nan;101480.03;5016778;28;20025;-75
2023/08/09 05:36:07;;;;;;;33.70;15.45;;;;;;;12.52;nan;101472.94;5022980;28;20100;-75
2023/08/09 05:38:33;;;;;;;30.13;15.50;;;;;;;12.63;nan;101485.78;5022489;28;20105;-76
2023/08/09 05:40:58;;;;;;;29.98;15.38;;;;;;;12.67;nan;101476.13;5022019;28;20465;-76
2023/08/09 05:43:23;;;;;;;27.45;15.30;;;;;;;12.78;nan;101484.56;5022249;28;20032;-75
2023/08/09 05:45:49;;;;;;;29.10;16.08;;;;;;;12.73;nan;101470.75;5023030;28;20018;-75
2023/08/09 05:48:14;;;;;;;28.77;15.85;;;;;;;12.75;nan;101479.41;5022232;28;20033;-75
2023/08/09 05:50:39;;;;;;;26.33;14.90;;;;;;;12.73;nan;101476.84;5021557;28;20028;-75
2023/08/09 05:53:05;;;;;;;34.55;16.73;;;;;;;12.78;nan;101480.19;5022450;28;20030;-75
2023/08/09 05:55:30;;;;;;;34.15;16.88;;;;;;;12.84;nan;101489.69;5016092;28;20099;-75
2023/08/09 05:57:56;;;;;;;33.03;16.98;;;;;;;12.77;nan;101488.09;5021837;28;20022;-75
2023/08/09 06:00:23;;;;;;;34.97;17.95;;;;;;;12.82;nan;101492.34;5017739;28;20029;-75
2023/08/09 06:02:49;;;;;;;34.08;17.63;;;;;;;12.81;nan;101485.38;5022328;28;20032;-76
2023/08/09 06:05:35;;;;;;;36.78;18.55;;;;;;;12.82;nan;101494.97;5020591;28;20029;-75
2023/08/09 06:08:00;;;;;;;45.85;19.77;;;;;;;12.86;nan;101503.59;5022890;28;20117;-75
2023/08/09 06:10:25;;;;;;;38.38;18.60;;;;;;;12.89;nan;101501.78;5018839;28;20420;-76
2023/08/09 06:12:53;;;;;;;44.30;20.70;;;;;;;12.96;nan;101512.09;5015441;28;20473;-75
2023/08/09 06:15:20;;;;;;;40.25;20.00;;;;;;;12.95;nan;101519.09;5018557;28;20088;-76
2023/08/09 06:17:46;;;;;;;48.40;21.27;;;;;;;12.89;nan;101519.25;5018382;28;20029;-76
2023/08/09 06:20:14;;;;;;;41.65;21.60;;;;;;;12.92;nan;101526.16;5016701;28;20037;-75
2023/08/09 06:22:41;;;;;;;41.85;21.10;;;;;;;12.95;nan;101528.69;5024502;28;20473;-78
2023/08/09 06:25:09;;;;;;;45.63;20.65;;;;;;;12.92;nan;101544.47;5025962;28;20033;-76
2023/08/09 06:27:35;;;;;;;48.42;21.10;;;;;;;12.98;nan;101547.81;5025127;28;20092;-76
2023/08/09 06:30:01;;;;;;;47.72;21.10;;;;;;;13.04;nan;101539.81;5026641;28;20025;-76
2023/08/09 06:32:27;;;;;;;51.90;22.23;;;;;;;13.19;nan;101551.69;5025922;28;20038;-76
2023/08/09 06:34:52;;;;;;;47.53;21.42;;;;;;;13.38;nan;101543.47;5024774;28;20430;-75
2023/08/09 06:37:17;;;;;;;45.00;21.65;;;;;;;13.47;nan;101546.72;5024071;28;20048;-75
2023/08/09 06:39:43;;;;;;;49.40;20.65;;;;;;;13.56;nan;101541.22;5020115;28;20044;-75
2023/08/09 06:42:11;;;;;;;50.45;20.33;;;;;;;13.60;nan;101539.41;5023684;28;20037;-75
2023/08/09 06:44:37;;;;;;;44.50;19.95;;;;;;;13.67;nan;101548.84;5023117;28;20022;-75
2023/08/09 06:47:02;;;;;;;43.33;18.88;;;;;;;13.79;nan;101548.50;5030074;28;20032;-75
2023/08/09 06:49:28;;;;;;;41.67;18.50;;;;;;;13.75;nan;101546.88;5021779;28;20022;-76
2023/08/09 06:51:55;;;;;;;38.08;17.92;;;;;;;13.78;nan;101556.44;5021373;28;20473;-75
2023/08/09 06:54:20;;;;;;;35.95;17.92;;;;;;;13.78;nan;101548.56;5022898;28;20029;-75
2023/08/09 06:56:45;;;;;;;30.67;16.98;;;;;;;13.95;nan;101551.59;5022787;28;20072;-75
2023/08/09 06:59:11;;;;;;;32.33;16.77;;;;;;;14.09;nan;101551.22;5014622;28;20124;-81
2023/08/09 07:01:36;;;;;;;29.45;16.90;;;;;;;14.18;nan;101556.22;5024280;28;20029;-75
2023/08/09 07:04:01;;;;;;;27.70;17.15;;;;;;;14.22;nan;101550.03;5015760;28;20022;-75
2023/08/09 07:06:27;;;;;;;27.45;17.38;;;;;;;14.34;nan;101561.94;5020660;28;20041;-76
2023/08/09 07:08:55;;;;;;;25.85;15.98;;;;;;;14.52;nan;101565.84;5022890;28;20022;-75
2023/08/09 07:11:20;;;;;;;28.15;16.85;;;;;;;14.54;nan;101561.41;5028712;28;20108;-75
2023/08/09 07:13:46;;;;;;;26.33;17.25;;;;;;;14.62;nan;101556.81;5021899;28;20176;-75
2023/08/09 07:16:11;;;;;;;27.20;17.92;;;;;;;14.69;nan;101545.22;5027285;28;20075;-76
2023/08/09 07:18:37;;;;;;;26.27;16.25;;;;;;;14.80;nan;101552.75;5024532;28;20037;-75
2023/08/09 07:21:03;;;;;;;25.52;16.55;;;;;;;14.95;nan;101564.59;5025118;28;20461;-75
2023/08/09 07:23:28;;;;;;;26.20;17.33;;;;;;;14.89;nan;101562.16;5025453;28;20030;-75
2023/08/09 07:25:53;;;;;;;26.63;16.13;;;;;;;15.01;nan;101561.78;5024207;28;20508;-75
2023/08/09 07:28:19;;;;;;;23.88;16.15;;;;;;;15.14;nan;101555.25;5024522;28;20141;-75
2023/08/09 07:30:44;;;;;;;25.52;17.00;;;;;;;15.16;nan;101558.66;5023114;28;20382;-76
2023/08/09 07:33:10;;;;;;;24.13;17.80;;;;;;;15.26;nan;101558.38;5025072;28;20120;-75
2023/08/09 07:35:35;;;;;;;24.75;17.40;;;;;;;15.26;nan;101556.59;5024338;28;20163;-75
2023/08/09 07:38:01;;;;;;;22.10;17.00;;;;;;;15.26;nan;101566.25;5022368;28;20030;-75
2023/08/09 07:40:26;;;;;;;22.98;17.08;;;;;;;15.33;nan;101567.78;5020209;28;20026;-75
2023/08/09 07:42:53;;;;;;;21.48;16.52;;;;;;;15.38;nan;101565.88;5023803;28;20037;-75
2023/08/09 07:45:18;;;;;;;23.08;18.08;;;;;;;15.37;nan;101566.78;5025220;28;20468;-75
2023/08/09 07:47:44;;;;;;;22.60;16.10;;;;;;;15.68;nan;101569.31;5025864;28;20105;-75
2023/08/09 07:50:10;;;;;;;22.10;16.20;;;;;;;15.81;nan;101567.97;5022920;28;20037;-75
2023/08/09 07:52:36;;;;;;;22.45;16.70;;;;;;;15.97;nan;101572.72;5027730;28;20373;-75
2023/08/09 07:55:02;;;;;;;20.33;15.85;;;;;;;16.10;nan;101579.28;5021165;28;20025;-75
2023/08/09 07:57:27;;;;;;;21.05;15.55;;;;;;;16.12;nan;101583.59;5024189;28;20376;-75
2023/08/09 07:59:52;;;;;;;19.13;15.05;;;;;;;16.04;nan;101587.38;5025285;28;20044;-75
2023/08/09 08:02:18;;;;;;;21.15;15.85;;;;;;;16.06;nan;101589.06;5022172;28;20037;-75
2023/08/09 08:04:44;;;;;;;20.20;14.52;;;;;;;16.03;nan;101589.16;5021372;28;20493;-75
2023/08/09 08:07:09;;;;;;;17.95;14.50;;;;;;;16.09;nan;101591.59;5021849;28;20017;-75
2023/08/09 08:09:41;;;;;;;19.60;14.60;;;;;;;16.06;nan;101594.31;5022894;28;20041;-75
2023/08/09 08:12:08;;;;;;;17.33;14.55;;;;;;;15.98;nan;101585.81;5025104;28;20080;-75
2023/08/09 08:14:34;;;;;;;19.50;15.05;;;;;;;16.11;nan;101594.13;5022992;28;20536;-75
2023/08/09 08:17:00;;;;;;;22.15;15.38;;;;;;;16.19;nan;101596.53;5025819;28;20104;-75
2023/08/09 08:19:25;;;;;;;18.75;14.70;;;;;;;16.20;nan;101599.09;5021200;28;20116;-75
2023/08/09 08:21:51;;;;;;;16.48;13.75;;;;;;;16.06;nan;101594.31;5028107;28;20029;-75
2023/08/09 08:24:16;;;;;;;22.70;15.63;;;;;;;15.96;nan;101597.28;5020222;28;20036;-75
2023/08/09 08:26:41;;;;;;;18.48;16.05;;;;;;;16.14;nan;101596.66;5027922;28;20369;-75
2023/08/09 08:29:06;;;;;;;20.10;15.65;;;;;;;16.54;nan;101604.00;5021296;28;20030;-75
2023/08/09 08:31:32;;;;;;;18.67;14.75;;;;;;;16.82;nan;101609.16;5026348;28;20440;-75
2023/08/09 08:33:58;;;;;;;20.70;15.45;;;;;;;16.92;nan;101600.91;5022228;28;20354;-75
2023/08/09 08:36:23;;;;;;;16.70;14.30;;;;;;;16.85;nan;101611.69;5025097;28;20532;-75
2023/08/09 08:38:49;;;;;;;16.17;13.00;;;;;;;16.64;nan;101620.31;5023301;28;20512;-75
2023/08/09 08:41:15;;;;;;;17.42;13.90;;;;;;;16.53;nan;101607.56;5022246;28;20465;-75
2023/08/09 08:43:40;;;;;;;17.88;14.10;;;;;;;16.62;nan;101607.22;5024296;28;20067;-75
2023/08/09 08:46:08;;;;;;;18.92;13.88;;;;;;;16.52;nan;101602.38;5022572;28;20029;-75
2023/08/09 08:48:33;;;;;;;17.63;13.95;;;;;;;16.42;nan;101617.63;5023908;28;20029;-75
2023/08/09 08:51:02;;;;;;;15.88;13.15;;;;;;;16.22;nan;101620.06;5023189;28;20457;-75
2023/08/09 08:53:28;;;;;;;19.25;14.27;;;;;;;16.21;nan;101611.31;5022960;28;20028;-75
2023/08/09 08:55:54;;;;;;;16.50;13.20;;;;;;;16.33;nan;101626.69;5024199;28;20026;-75
2023/08/09 08:58:20;;;;;;;17.23;12.88;;;;;;;16.45;nan;101629.78;5020691;28;20120;-75
2023/08/09 09:00:45;;;;;;;18.80;12.95;;;;;;;16.70;nan;101624.50;5023633;28;20121;-75
2023/08/09 09:03:14;;;;;;;18.02;13.73;;;;;;;16.99;nan;101626.09;5023633;28;20040;-75
2023/08/09 09:05:39;;;;;;;19.50;14.05;;;;;;;17.31;nan;101632.78;5012696;28;20852;-75
2023/08/09 09:08:05;;;;;;;16.20;12.80;;;;;;;17.22;nan;101633.13;5022880;28;20061;-75
2023/08/09 09:10:30;;;;;;;16.50;13.63;;;;;;;16.81;nan;101638.19;5021326;28;20029;-75
2023/08/09 09:12:55;;;;;;;16.77;12.90;;;;;;;16.78;nan;101636.53;5023468;28;20029;-75
2023/08/09 09:15:22;;;;;;;16.60;12.55;;;;;;;16.86;nan;101638.88;5021970;28;20473;-74
2023/08/09 09:17:48;;;;;;;15.80;11.23;;;;;;;16.78;nan;101638.31;5023604;28;20025;-74
2023/08/09 09:20:23;;;;;;;15.23;11.57;;;;;;;17.01;nan;101634.81;5022838;28;20029;-75
2023/08/09 09:22:49;;;;;;;20.35;12.57;;;;;;;17.21;nan;101629.63;5022440;28;20080;-74
2023/08/09 09:25:17;;;;;;;17.83;11.73;;;;;;;17.36;nan;101635.22;5023411;28;20112;-74
2023/08/09 09:27:45;;;;;;;17.00;12.38;;;;;;;17.30;nan;101641.59;5021234;28;20041;-75
2023/08/09 09:30:14;;;;;;;15.90;11.57;;;;;;;17.29;nan;101626.69;5023626;28;20033;-74
2023/08/09 09:32:56;;;;;;;16.02;11.40;;;;;;;17.44;nan;101644.56;5021763;28;20041;-75
2023/08/09 09:35:25;;;;;;;16.70;11.70;;;;;;;17.38;nan;101655.31;5012253;28;20021;-75
2023/08/09 09:37:52;;;;;;;13.52;11.05;;;;;;;17.17;nan;101653.53;5022176;28;20095;-74
2023/08/09 09:40:35;;;;;;;19.55;11.20;;;;;;;17.29;nan;101650.41;5023245;28;20061;-75
2023/08/09 09:43:01;;;;;;;14.63;10.90;;;;;;;17.53;nan;101644.19;5022300;28;20021;-74
2023/08/09 09:45:29;;;;;;;14.55;11.25;;;;;;;17.62;nan;101642.09;5022656;28;20086;-74
2023/08/09 09:47:56;;;;;;;17.08;11.98;;;;;;;17.47;nan;101643.56;5022154;28;20076;-75
2023/08/09 09:50:23;;;;;;;16.17;11.70;;;;;;;17.65;nan;101637.56;5008760;28;20029;-74
2023/08/09 09:52:50;;;;;;;15.38;11.75;;;;;;;17.90;nan;101629.53;5023840;28;20027;-74
2023/08/09 09:55:16;;;;;;;18.20;11.20;;;;;;;18.25;nan;101622.78;5021033;28;20052;-74
2023/08/09 09:57:42;;;;;;;13.98;10.80;;;;;;;18.54;nan;101623.28;5023075;28;20032;-74
2023/08/09 10:00:14;;;;;;;15.05;11.65;;;;;;;18.84;nan;101620.22;5021000;28;20042;-74
2023/08/09 10:02:51;;;;;;;13.70;10.80;;;;;;;19.22;nan;101615.78;5011519;28;20032;-75
2023/08/09 10:05:37;;;;;;;11.68;10.32;;;;;;;19.43;nan;101627.13;5016243;28;20060;-74
2023/08/09 10:08:08;;;;;;;13.82;10.38;;;;;;;19.28;nan;101631.34;5014031;28;20417;-74
2023/08/09 10:10:35;;;;;;;11.93;9.88;;;;;;;18.93;nan;101633.88;5013723;28;20057;-75
2023/08/09 10:13:03;;;;;;;13.23;9.52;;;;;;;18.83;nan;101629.91;5016935;28;20026;-74
2023/08/09 10:15:35;;;;;;;10.60;9.20;;;;;;;18.72;nan;101621.63;5016920;28;20057;-74
2023/08/09 10:18:10;;;;;;;10.55;9.35;;;;;;;18.63;nan;101632.56;5021903;28;20048;-75
2023/08/09 10:20:40;;;;;;;11.77;10.45;;;;;;;18.33;nan;101625.06;5021342;28;20040;-75
2023/08/09 10:23:06;;;;;;;10.75;9.25;;;;;;;18.09;nan;101618.22;5022528;28;20104;-74
2023/08/09 10:25:43;;;;;;;11.88;9.80;;;;;;;18.13;nan;101628.56;5021680;28;20128;-74
2023/08/09 10:28:08;;;;;;;11.20;9.50;;;;;;;18.62;nan;101620.28;5013382;28;20037;-74
2023/08/09 10:30:52;;;;;;;9.85;8.90;;;;;;;18.83;nan;101623.78;5017208;28;20030;-74
2023/08/09 10:33:21;;;;;;;11.23;9.82;;;;;;;19.07;nan;101629.72;5012635;28;20053;-74
2023/08/09 10:35:54;;;;;;;10.00;8.98;;;;;;;19.46;nan;101623.50;5020666;28;20025;-75
2023/08/09 10:38:31;;;;;;;;;;;;;;;19.83;nan;101631.34;5012703;28;20064;-74
2023/08/09 10:40:58;;;;;;;8.65;7.78;;;;;;;19.87;nan;101627.63;5020313;28;20007;-74
2023/08/09 10:43:25;;;;;;;9.52;7.97;;;;;;;20.07;nan;101641.63;5008181;28;20461;-75
2023/08/09 10:45:55;;;;;;;8.85;6.70;;;;;;;20.05;nan;101638.22;5012847;28;20037;-75
2023/08/09 10:48:25;;;;;;;8.88;6.88;;;;;;;20.04;nan;101642.63;5007484;28;20044;-75
2023/08/09 10:51:00;;;;;;;6.90;5.40;;;;;;;20.25;nan;101638.06;5021132;28;20056;-75
2023/08/09 10:53:27;;;;;;;5.50;5.00;;;;;;;20.05;nan;101638.22;5021922;28;20052;-75
2023/08/09 10:55:55;;;;;;;5.43;4.90;;;;;;;19.68;nan;101647.97;5022608;28;20036;-75
2023/08/09 10:58:28;;;;;;;5.20;4.60;;;;;;;19.57;nan;101643.19;5019011;28;20480;-75
2023/08/09 11:00:54;;;;;;;6.85;4.35;;;;;;;19.28;nan;101649.00;5024352;28;20045;-75
2023/08/09 11:03:19;;;;;;;5.60;4.45;;;;;;;19.49;nan;101653.28;5021003;28;20473;-75
2023/08/09 11:05:45;;;;;;;7.15;4.53;;;;;;;20.05;nan;101640.88;5020113;28;20057;-75
2023/08/09 11:08:12;;;;;;;5.53;4.03;;;;;;;20.10;nan;101647.63;5026213;28;20036;-75
2023/08/09 11:10:40;;;;;;;4.35;3.95;;;;;;;20.02;nan;101638.38;5023968;28;20029;-75
2023/08/09 11:13:08;;;;;;;5.68;3.95;;;;;;;20.47;nan;101634.28;5018924;28;20037;-75
2023/08/09 11:15:34;;;;;;;4.05;3.60;;;;;;;20.50;nan;101629.72;5023908;28;20022;-75
2023/08/09 11:18:00;;;;;;;6.57;4.40;;;;;;;20.33;nan;101638.50;5030089;28;20477;-75
2023/08/09 11:20:25;;;;;;;4.93;3.80;;;;;;;20.84;nan;101633.22;5023069;28;20045;-75
2023/08/09 11:22:56;;;;;;;3.83;3.15;;;;;;;20.98;nan;101641.28;5025594;28;20108;-74
2023/08/09 11:25:23;;;;;;;7.70;3.08;;;;;;;20.86;nan;101641.09;5018698;28;20034;-75
2023/08/09 11:27:53;;;;;;;4.07;3.25;;;;;;;21.09;nan;101635.41;5024722;28;20029;-74
2023/08/09 11:30:19;;;;;;;4.15;3.05;;;;;;;21.09;nan;101640.72;5025200;28;20032;-75
2023/08/09 11:32:44;;;;;;;5.20;3.20;;;;;;;20.78;nan;101644.16;5022663;28;20444;-75